Flight Track Log - Related Links

Times and Time Zones

All times are in EDT time to prevent confusion due to time zone crossing. See the JBU1329 flight status page for this flight to view local times or setup timezone preferences in your user account.

Time Position Orientation Groundspeed Altitude Reporting Facility
EDT Latitude Longitude Course Direction KTS MPH feet Rate Location/Type
09:21AM 42.3667 -70.9667 270° West 171 197 900  Level KA90
09:22AM 42.3833 -70.9000 71° East 223 257 2,500 1,846 Climbing KA90
09:22AM 42.3889 -70.8294 84° East 243 280 4,100 2,510 Climbing Boston Center
09:23AM 42.3711 -70.7428 105° East 277 319 6,600 2,900 Climbing Boston Center
09:24AM 42.2934 -70.7265 228° Southwest  Level FlightAware Approximate
09:24AM 42.2936 -70.7250 170° South 220 253 9,900  Level Boston Center
09:25AM 42.2300 -70.8244 240° Southwest  Level FlightAware Approximate
09:25AM 42.2342 -70.7942 221° Southwest 211 243 11,800  Level Boston Center
09:26AM 42.1833 -70.9376 270° West  Level FlightAware Approximate
09:26AM 42.2150 -70.9011 256° West 265 305 14,300  Level Boston Center
09:27AM 42.1958 -71.0333 259° West 311 358 16,900 2,350 Climbing Boston Center
09:28AM 42.1783 -71.1486 258° West 339 390 19,000 2,200 Climbing Boston Center
09:29AM 42.1569 -71.2947 259° West 360 414 21,300 1,900 Climbing Boston Center
09:30AM 42.1394 -71.4153 259° West 368 423 22,800 1,750 Climbing Boston Center
09:31AM 42.1158 -71.5697 258° West 375 432 24,800 1,727 Climbing Boston Center
09:33AM 42.0897 -71.7408 258° West 381 438 26,600 1,545 Climbing Boston Center
09:34AM 42.0550 -71.8781 251° West 386 444 28,200 1,600 Climbing Boston Center
09:35AM 42.0014 -71.9986 239° Southwest 386 444 29,800 1,600 Climbing Boston Center
09:36AM 41.9456 -72.1192 238° Southwest 381 438 31,400 1,100 Climbing Boston Center
09:37AM 41.8917 -72.2422 240° Southwest 381 438 32,000 300 Climbing Boston Center
09:38AM 41.8336 -72.3706 239° Southwest 392 451 32,000  Level Boston Center
09:39AM 41.7772 -72.4986 239° Southwest 398 458 32,000  Level Boston Center
09:40AM 41.7186 -72.6236 238° Southwest 404 465 32,000  Level Boston Center
09:41AM 41.6622 -72.7514 239° Southwest 404 465 32,000  Level Boston Center
09:42AM 41.6056 -72.8786 239° Southwest 404 465 32,000  Level Boston Center
09:43AM 41.5486 -73.0058 239° Southwest 404 465 32,000  Level Boston Center
09:44AM 41.4958 -73.1247 239° Southwest 399 459 32,000  Level Boston Center
09:45AM 41.4367 -73.2486 238° Southwest 394 453 32,000  Level Boston Center
09:46AM 41.3347 -73.4736 239° Southwest 374 430 32,000  Level New York Center
09:47AM 41.2736 -73.5953 236° Southwest 384 442 32,000  Level New York Center
09:48AM 41.2106 -73.7083 233° Southwest 384 442 32,000  Level New York Center
09:49AM 41.1453 -73.8186 232° Southwest 389 448 32,000  Level New York Center
09:50AM 41.0800 -73.9256 231° Southwest 389 448 32,000  Level New York Center
09:51AM 41.0122 -74.0381 231° Southwest 389 448 32,000 -756 Level New York Center
09:52AM 40.9489 -74.1475 233° Southwest 389 448 30,500 -1,750 Descending New York Center
09:53AM 40.8789 -74.2564 230° Southwest 389 448 28,500 -2,033 Descending New York Center
09:54AM 40.8111 -74.3628 230° Southwest 389 448 26,400 -1,240 Descending New York Center
09:55AM 40.7475 -74.4717 232° Southwest 389 448 26,000 -605 Descending New York Center
09:56AM 40.6839 -74.5722 230° Southwest 383 441 25,200 -1,008 Descending New York Center
09:57AM 40.6217 -74.6836 234° Southwest 383 441 24,000 -1,050 Descending New York Center
09:58AM 40.5539 -74.7833 228° Southwest 383 441 23,100 -950 Descending New York Center
09:59AM 40.4817 -74.8858 227° Southwest 378 435 22,100 -1,180 Descending New York Center
10:00AM 40.4156 -74.9825 228° Southwest 378 435 20,700 -1,537 Descending New York Center
10:01AM 40.3475 -75.0764 226° Southwest 366 421 19,000 -864 Descending New York Center
10:02AM 40.2883 -75.1600 227° Southwest 361 415 19,000  Level New York Center
10:03AM 40.2114 -75.2664 227° Southwest 361 415 19,000  Level New York Center
10:04AM 40.1408 -75.3622 226° Southwest 367 422 19,000  Level New York Center
10:05AM 40.0811 -75.4481 228° Southwest 360 414 19,000  Level New York Center
10:06AM 40.0042 -75.5511 226° Southwest 360 414 19,000 -492 Level New York Center
10:07AM 39.9422 -75.6392 227° Southwest 360 414 18,000 -1,033 Descending New York Center
10:08AM 39.8769 -75.7508 233° Southwest 360 414 16,900 -1,017 Descending New York Center
10:09AM 39.8269 -75.8472 236° Southwest 355 409 16,000 -1,544 Descending New York Center
10:11AM 39.7167 -76.0500 235° Southwest 328 377 12,500 -1,379 Descending Potomac TRACON
10:12AM 39.6667 -76.1333 232° Southwest 285 328 12,000 -1,050 Descending Potomac TRACON
10:13AM 39.6333 -76.2167 243° Southwest 275 316 10,400 -1,762 Descending Potomac TRACON
10:14AM 39.5833 -76.3000 232° Southwest 271 312 8,300 -1,700 Descending Potomac TRACON
10:15AM 39.5333 -76.3500 218° Southwest 270 311 7,000 -1,211 Descending Potomac TRACON
10:16AM 39.4667 -76.4000 210° Southwest 266 306 6,000 -762 Descending Potomac TRACON
10:17AM 39.3833 -76.4500 205° Southwest 273 314 5,400 -992 Descending Potomac TRACON
10:18AM 39.3167 -76.4667 191° South 268 308 3,900 -1,461 Descending Potomac TRACON
10:19AM 39.2500 -76.5000 201° Southwest 267 307 2,600 -1,000 Descending Potomac TRACON
10:20AM 39.2000 -76.5333 207° Southwest 238 274 2,000 -600 Descending Potomac TRACON

Login

Don't have an account? Register now (free) for customized features, flight alerts, and more!